Louin, MS

02:20 AM CDT on Julyo 22, 2014 (GMT -0500)
Boykinville-Pineville (KMSRALEI3) Elev 397 ft | 32.09 °N, 89.44 °W | Change Station

Current weather conditions updated 4 minutes ago

Clear
Clear
69.3 °F
Feels Like 69.3 °F
N
0.0
Hangin Variable Hangin from West

Today is forecast to be Cooler than yesterday. Kalat-kalat na pagkulog at pagkidlat..

Ngayon
High -- | Low -- °F
--% Chance of Precip.
Yesterday
High -- | Low -- °F
Precip. -- sa
6:05 AM 8:00 PM
Waning Crescent, 19% visible
Pwersa 30.01 sa
Paningin 10.0 milya
Mga Ulap Clear
Hamog 69 °F
Humidito 98%
Rainfall 0.00 sa
Snow Depth Not available.
UV 0 out of 12
Pollen 3.50 out of 12
Air Quality Not available.
Flu Activity No Activity
METAR KMEI 220658Z AUTO 00000KT 10SM CLR 22/21 A3002 RMK AO2 SLP160 T02220206

More Conditions Fewer Conditions

Pwersa 30.01 sa
Paningin 10.0 milya
Mga Ulap Clear
Hamog 69 °F
Humidito 98%
Rainfall 0.00 sa
Snow Depth Not available.
UV 0 out of 12
Pollen 3.50 out of 12
Air Quality Not available.
Flu Activity No Activity
METAR KMEI 220658Z AUTO 00000KT 10SM CLR 22/21 A3002 RMK AO2 SLP160 T02220206

More Conditions Fewer Conditions

10-Day Weather Forecast

LIGHTNING

Thunderstorms are forecast for your area. Cloud conditions might be right for producing strikes in the next few days, though lightning itself cannot be forecasted.

Lightning is a visible electrical discharge produced by a thunderstorm, based on the build up of oppositely charged particles within a cloud and from cloud to ground.

Know how to stay safe in a lightning storm.

Check out these Lightning WunderPhotos!

Almanac

Astronomiya

Jul. 22, 2014 Rise Set
Actual Time 6:05 AM CDT 8:00 PM CDT
Civil Twilight 5:38 AM CDT 8:28 PM CDT
Nautical Twilight 5:05 AM CDT 9:01 PM CDT
Astronomical Twilight 4:29 AM CDT 9:36 PM CDT
Buwan 2:36 AM CDT 4:40 PM CDT
Length Of Visible Light 14h 49m
Haba ng Araw
13h 55m
Tomorrow will be 1m 13s shorter.
Waning Crescent, 19% of the Moon is Illuminated
Ngayon
Waning Crescent
Jul 26
New
Aug 3
Unang Quarter
Aug 10
Kabilugan ng Buwan
Aug 17
Last Quarter

Today's Extremes

State Highs State Lows

Community

WunderPhotos

Upload Photos

1,736,194 photos uploaded!

Nearby

Snow Depth

Station Depth Elevation
No new snow has been reported.

Earthquake Activity

Siyudad Distance Mag. Time & Date
No recent earthquake activity has been reported nearby.
Minimum magnitude displayed is 2.5.

Coastal Water Temperatures

lugar Temparatura
No Stations Reporting

Nearby Weather Stations

Station Location Temp Hamog Humidito Hangin Precip. Elev Bago Type
Boykinville-Pineville, Raleigh, MS 69.3 °F 69 °F 98% West  at  0.0 mph - / hr 397 ft 2:15 AM CDT Normal
Harris Hollow, Raleigh, MS 71.4 °F 68 °F 89% West  at  0.0 mph 0.00 sa / hr 322 ft 2:15 AM CDT Rapid Fire
RAWS BIENVILLE MS, Forest, MS 71 °F 69 °F 95% North  at  3 mph 0.00 sa / hr 470 ft 1:06 AM CDT MADIS

Show More Stations Show Fewer Stations